Time;durP1;ratioP1;P1;durP2;ratioP2;P2;SDS_P1;SDS_P2;PMS_P1;PMS_P2;Temp;Humidity;BMP_temperature;BMP_pressure;BME280_temperature;BME280_humidity;BME280_pressure;Samples;Min_cycle;Max_cycle;Signal;HPM_P1;HPM_P2
2023/01/12 00:02:08;;;;;;;;;;;;;;;12.49;80.85;101503.16;5070808;28;20282;-90
2023/01/12 00:04:42;;;;;;;;;;;;;;;12.50;80.75;101508.50;5086890;28;19919;-90
2023/01/12 00:07:09;;;;;;;;;;;;;;;12.48;80.62;101509.25;5068411;28;19947;-89
2023/01/12 00:09:44;;;;;;;;;;;;;;;12.46;80.93;101510.88;5040937;28;19916;-90
2023/01/12 00:12:11;;;;;;;;;;;;;;;12.48;80.74;101499.66;5061927;28;19912;-90
2023/01/12 00:14:37;;;;;;;;;;;;;;;12.51;80.37;101506.78;5073613;28;19916;-90
2023/01/12 00:17:03;;;;;;;;;;;;;;;12.50;80.21;101505.00;5087638;28;20290;-89
2023/01/12 00:19:28;;;;;;;;;;;;;;;12.58;79.97;101511.59;5072307;28;19927;-90
2023/01/12 00:22:08;;;;;;;;;;;;;;;12.61;79.74;101517.91;5089279;28;19920;-89
2023/01/12 00:24:59;;;;;;;;;;;;;;;12.52;79.97;101512.13;5084511;28;20385;-89
2023/01/12 00:27:34;;;;;;;;;;;;;;;12.58;80.01;101522.97;5053799;28;19913;-89
2023/01/12 00:30:00;;;;;;;;;;;;;;;12.58;79.73;101512.47;5069300;28;19967;-89
2023/01/12 00:32:29;;;;;;;;;;;;;;;12.63;79.50;101508.38;5083046;28;20003;-89
2023/01/12 00:34:55;;;;;;;;;;;;;;;12.64;79.53;101514.56;5086672;28;19970;-89
2023/01/12 00:37:21;;;;;;;;;;;;;;;12.64;79.38;101514.56;5086800;28;19921;-90
2023/01/12 00:39:49;;;;;;;;;;;;;;;12.61;79.68;101507.44;5070362;28;20505;-90
2023/01/12 00:47:44;;;;;;;;;;;;;;;12.58;79.45;101512.47;5071666;28;19982;-89
2023/01/12 00:50:10;;;;;;;;;;;;;;;12.58;79.30;101516.81;5090104;28;19912;-89
2023/01/12 00:52:38;;;;;;;;;;;;;;;12.58;79.36;101514.19;5061159;28;19916;-90
2023/01/12 00:58:18;;;;;;;;;;;;;;;12.51;79.64;101512.94;5044183;28;19921;-90
2023/01/12 01:00:43;;;;;;;;;;;;;;;12.55;79.66;101520.19;5090794;28;19946;-89
2023/01/12 01:03:18;;;;;;;;;;;;;;;12.54;79.48;101518.34;5074058;28;19920;-89
2023/01/12 01:05:46;;;;;;;;;;;;;;;12.51;79.56;101510.34;5070588;28;20381;-89
2023/01/12 01:08:13;;;;;;;;;;;;;;;12.59;79.09;101508.13;5068459;28;19916;-89
2023/01/12 01:10:38;;;;;;;;;;;;;;;12.61;78.76;101517.91;5073637;28;19917;-88
2023/01/12 01:13:04;;;;;;;;;;;;;;;12.63;78.86;101511.00;5087091;28;20434;-89
2023/01/12 01:15:29;;;;;;;;;;;;;;;12.61;78.70;101507.44;5089477;28;19987;-90
2023/01/12 01:17:55;;;;;;;;;;;;;;;12.59;78.88;101511.69;5090381;28;19935;-89
2023/01/12 01:20:22;;;;;;;;;;;;;;;12.57;79.10;101502.81;5073317;28;19939;-89
2023/01/12 01:22:48;;;;;;;;;;;;;;;12.56;78.93;101501.00;5090610;28;19995;-89
2023/01/12 01:25:14;;;;;;;;;;;;;;;12.56;79.41;101506.25;5090581;28;19912;-90
2023/01/12 01:27:39;;;;;;;;;;;;;;;12.59;78.91;101503.81;5071267;28;19977;-89
2023/01/12 01:30:05;;;;;;;;;;;;;;;12.60;79.05;101515.19;5073226;28;19912;-89
2023/01/12 01:32:32;;;;;;;;;;;;;;;12.50;79.25;101512.84;5070815;28;19917;-89
2023/01/12 01:34:58;;;;;;;;;;;;;;;12.55;79.12;101509.69;5085765;28;19917;-90
2023/01/12 01:37:23;;;;;;;;;;;;;;;12.43;79.56;101498.50;5072060;28;19927;-89
2023/01/12 01:39:48;;;;;;;;;;;;;;;12.45;79.43;101502.13;5089372;28;19920;-89
2023/01/12 01:42:27;;;;;;;;;;;;;;;12.58;79.04;101516.81;5089589;28;19995;-89
2023/01/12 01:44:53;;;;;;;;;;;;;;;12.53;78.99;101513.00;5066397;28;19916;-89
2023/01/12 01:47:23;;;;;;;;;;;;;;;12.61;78.51;101511.75;5072696;28;20283;-90
2023/01/12 01:49:50;;;;;;;;;;;;;;;12.63;78.55;101515.34;5068362;28;19920;-89
2023/01/12 01:52:18;;;;;;;;;;;;;;;12.62;78.70;101518.81;5071905;28;19948;-89
2023/01/12 01:54:59;;;;;;;;;;;;;;;12.59;78.51;101513.38;5072608;28;20404;-89
2023/01/12 01:57:26;;;;;;;;;;;;;;;12.55;78.59;101521.88;5081418;28;19913;-89
2023/01/12 01:59:52;;;;;;;;;;;;;;;12.60;78.51;101507.34;5070371;28;19924;-89
2023/01/12 02:02:19;;;;;;;;;;;;;;;12.50;79.15;101507.63;5071829;28;19959;-89
2023/01/12 02:04:44;;;;;;;;;;;;;;;12.48;78.76;101506.63;5062448;28;19923;-88
2023/01/12 02:07:10;;;;;;;;;;;;;;;12.50;78.62;101516.38;5089627;28;19912;-89
2023/01/12 02:09:37;;;;;;;;;;;;;;;12.43;78.84;101519.47;5071878;28;19923;-89
2023/01/12 02:17:44;;;;;;;;;;;;;;;12.59;78.51;101516.91;5088998;28;20451;-88
2023/01/12 02:20:11;;;;;;;;;;;;;;;12.62;78.23;101516.19;5090285;28;20011;-89
2023/01/12 02:22:50;;;;;;;;;;;;;;;12.64;78.18;101522.41;5090348;28;20369;-88
2023/01/12 02:25:31;;;;;;;;;;;;;;;12.61;78.33;101524.84;5092825;28;19918;-88
2023/01/12 02:28:18;;;;;;;;;;;;;;;12.63;78.10;101517.97;5065331;28;20258;-88
2023/01/12 02:31:04;;;;;;;;;;;;;;;12.61;78.25;101524.84;5087596;28;19942;-90
2023/01/12 02:33:30;;;;;;;;;;;;;;;12.64;78.17;101527.66;5060217;28;20306;-90
2023/01/12 02:36:20;;;;;;;;;;;;;;;12.60;78.14;101529.19;5088635;28;19945;-90
2023/01/12 02:38:51;;;;;;;;;;;;;;;12.62;78.10;101522.31;5070644;28;19972;-90
2023/01/12 02:42:39;;;;;;;;;;;;;;;12.61;78.00;101509.13;5082899;28;20416;-89
2023/01/12 02:44:12;;;;;;;;;;;;;;;12.63;77.86;101507.50;5084844;28;19921;-90
2023/01/12 02:46:37;;;;;;;;;;;;;;;12.63;77.76;101505.78;5070977;28;19952;-89
2023/01/12 02:49:09;;;;;;;;;;;;;;;12.61;77.86;101512.69;5087534;28;20455;-90
2023/01/12 02:51:53;;;;;;;;;;;;;;;12.60;78.04;101525.69;5037102;28;19912;-89
2023/01/12 02:54:19;;;;;;;;;;;;;;;12.62;78.02;101530.19;5085068;28;19999;-90
2023/01/12 02:56:47;;;;;;;;;;;;;;;12.62;77.83;101540.66;5069901;28;20382;-91
2023/01/12 02:59:15;;;;;;;;;;;;;;;12.55;78.18;101540.22;5087875;28;19924;-91
2023/01/12 03:01:40;;;;;;;;;;;;;;;12.56;78.08;101532.44;5071559;28;20013;-90
2023/01/12 03:04:06;;;;;;;;;;;;;;;12.61;78.12;101537.94;5071680;28;19950;-90
2023/01/12 03:06:42;;;;;;;;;;;;;;;12.60;77.86;101536.16;5071436;28;20397;-89
2023/01/12 03:09:08;;;;;;;;;;;;;;;12.59;78.31;101545.75;5070368;28;19916;-89
2023/01/12 03:11:35;;;;;;;;;;;;;;;12.61;78.11;101540.56;5074868;28;19912;-89
2023/01/12 03:14:00;;;;;;;;;;;;;;;12.62;78.01;101537.16;5096768;28;20378;-89
2023/01/12 03:16:27;;;;;;;;;;;;;;;12.63;77.99;101531.97;5056951;28;20011;-89
2023/01/12 03:18:54;;;;;;;;;;;;;;;12.63;77.83;101521.50;5070774;28;20337;-90
2023/01/12 03:21:21;;;;;;;;;;;;;;;12.65;77.51;101521.59;5087712;28;19970;-89
2023/01/12 03:23:58;;;;;;;;;;;;;;;12.60;78.24;101518.72;5070919;28;19995;-89
2023/01/12 03:26:31;;;;;;;;;;;;;;;12.63;77.96;101525.84;5064313;28;19940;-89
2023/01/12 03:29:02;;;;;;;;;;;;;;;12.63;77.74;101513.63;5071677;28;19963;-89
2023/01/12 03:31:43;;;;;;;;;;;;;;;12.62;77.52;101516.19;5068819;28;19920;-89
2023/01/12 03:34:11;;;;;;;;;;;;;;;12.61;77.80;101512.69;5086851;28;20015;-90
2023/01/12 03:36:46;;;;;;;;;;;;;;;12.63;77.86;101510.13;5087187;28;19912;-88
2023/01/12 03:39:21;;;;;;;;;;;;;;;12.63;77.57;101513.63;5070965;28;19920;-88
2023/01/12 03:42:06;;;;;;;;;;;;;;;12.62;77.86;101514.47;5086923;28;19963;-89
2023/01/12 03:44:50;;;;;;;;;;;;;;;12.65;77.92;101531.19;5068856;28;19917;-89
2023/01/12 03:47:29;;;;;;;;;;;;;;;12.61;77.69;101533.63;5049273;28;19966;-89
2023/01/12 03:50:01;;;;;;;;;;;;;;;12.67;77.66;101548.78;5053610;28;19920;-89
2023/01/12 03:52:27;;;;;;;;;;;;;;;12.63;77.36;101545.06;5080361;28;19963;-90
2023/01/12 03:54:52;;;;;;;;;;;;;;;12.63;77.68;101549.41;5070194;28;19967;-90
2023/01/12 03:57:19;;;;;;;;;;;;;;;12.55;77.59;101546.38;5086735;28;19916;-89
2023/01/12 03:59:45;;;;;;;;;;;;;;;12.56;77.86;101552.50;5069553;28;19959;-89
2023/01/12 04:02:11;;;;;;;;;;;;;;;12.60;77.57;101544.91;5071089;28;19948;-89
2023/01/12 04:04:36;;;;;;;;;;;;;;;12.58;77.54;101551.78;5067308;28;19922;-91
2023/01/12 04:07:02;;;;;;;;;;;;;;;12.60;77.77;101549.25;5041435;28;19923;-89
2023/01/12 04:09:27;;;;;;;;;;;;;;;12.57;77.61;101547.38;5067688;28;19942;-88
2023/01/12 04:12:11;;;;;;;;;;;;;;;12.61;77.44;101543.19;5086621;28;20313;-89
2023/01/12 04:14:37;;;;;;;;;;;;;;;12.54;77.85;101536.69;5054578;28;19934;-89
2023/01/12 04:17:03;;;;;;;;;;;;;;;12.57;77.32;101529.03;5053411;28;20386;-89
2023/01/12 04:19:28;;;;;;;;;;;;;;;12.56;77.29;101542.94;5070006;28;19931;-89
2023/01/12 04:24:37;;;;;;;;;;;;;;;12.55;77.65;101541.13;5083118;28;20373;-88
2023/01/12 04:27:03;;;;;;;;;;;;;;;12.52;77.51;101540.03;5090849;28;19952;-88
2023/01/12 04:29:28;;;;;;;;;;;;;;;12.52;77.56;101538.31;5099652;28;20314;-88
2023/01/12 04:31:54;;;;;;;;;;;;;;;12.56;77.37;101548.16;5067132;28;20002;-90
2023/01/12 04:34:19;;;;;;;;;;;;;;;12.54;77.61;101547.16;5079915;28;20450;-90
2023/01/12 04:36:44;;;;;;;;;;;;;;;12.56;77.54;101555.13;5081515;28;20309;-89
2023/01/12 04:39:10;;;;;;;;;;;;;;;12.53;77.24;101557.56;5073514;28;20378;-90
2023/01/12 04:41:36;;;;;;;;;;;;;;;12.54;77.31;101565.50;5064740;28;20374;-90
2023/01/12 04:44:02;;;;;;;;;;;;;;;12.53;77.66;101573.28;5056612;28;19919;-89
2023/01/12 04:46:27;;;;;;;;;;;;;;;12.53;77.69;101570.66;5090582;28;19912;-89
2023/01/12 04:48:52;;;;;;;;;;;;;;;12.49;77.61;101577.44;5090056;28;20304;-88
2023/01/12 04:51:18;;;;;;;;;;;;;;;12.45;77.80;101571.94;5073800;28;20412;-89
2023/01/12 04:53:43;;;;;;;;;;;;;;;12.43;77.51;101569.22;5072876;28;20381;-87
2023/01/12 04:56:10;;;;;;;;;;;;;;;12.45;77.88;101572.84;5089137;28;20313;-88
2023/01/12 04:58:35;;;;;;;;;;;;;;;12.46;77.72;101574.63;5063428;28;19924;-90
2023/01/12 05:01:08;;;;;;;;;;;;;;;12.46;77.84;101568.50;5089625;28;20371;-91
2023/01/12 05:03:34;;;;;;;;;;;;;;;12.51;77.35;101570.59;5072109;28;19961;-87
2023/01/12 05:06:00;;;;;;;;;;;;;;;12.51;77.41;101570.59;5069077;28;19973;-89
2023/01/12 05:11:10;;;;;;;;;;;;;;;12.46;77.43;101566.78;5087604;28;19967;-89
2023/01/12 05:13:35;;;;;;;;;;;;;;;12.51;77.30;101570.59;5082641;28;20366;-89
2023/01/12 05:16:14;;;;;;;;;;;;;;;12.49;77.40;101573.91;5062177;28;20400;-89
2023/01/12 05:18:44;;;;;;;;;;;;;;;12.50;77.41;101579.25;5069454;28;19916;-90
2023/01/12 05:21:11;;;;;;;;;;;;;;;12.50;77.16;101580.97;5083660;28;19924;-88
2023/01/12 05:23:36;;;;;;;;;;;;;;;12.53;77.24;101586.38;5079410;28;20381;-90
2023/01/12 05:26:02;;;;;;;;;;;;;;;12.52;77.16;101585.47;5080739;28;19923;-89
2023/01/12 05:28:28;;;;;;;;;;;;;;;12.55;76.95;101590.91;5073663;28;19986;-88
2023/01/12 05:30:53;;;;;;;;;;;;;;;12.55;77.13;101595.22;5095940;28;19919;-89
2023/01/12 05:33:19;;;;;;;;;;;;;;;12.52;77.39;101595.06;5087593;28;19924;-90
2023/01/12 05:35:45;;;;;;;;;;;;;;;12.52;77.12;101602.91;5086628;28;19913;-90
2023/01/12 05:38:10;;;;;;;;;;;;;;;12.54;77.22;101596.06;5087756;28;20359;-88
2023/01/12 05:40:35;;;;;;;;;;;;;;;12.53;77.24;101589.91;5088520;28;19924;-89
2023/01/12 05:45:45;;;;;;;;;;;;;;;12.55;77.17;101610.94;5085661;28;19923;-90
2023/01/12 05:48:12;;;;;;;;;;;;;;;12.52;77.08;101600.31;5070576;28;20297;-89
2023/01/12 05:50:38;;;;;;;;;;;;;;;12.45;77.21;101601.66;5093726;28;19946;-85
2023/01/12 05:53:03;;;;;;;;;;;;;;;12.46;77.00;101598.22;5077883;28;20424;-88
2023/01/12 05:55:29;;;;;;;;;;;;;;;12.46;77.13;101587.72;5096136;28;19969;-88
2023/01/12 05:57:54;;;;;;;;;;;;;;;12.38;77.43;101595.16;5080973;28;19993;-88
2023/01/12 06:00:21;;;;;;;;;;;;;;;12.34;77.30;101602.72;5071890;28;19921;-88
2023/01/12 06:02:46;;;;;;;;;;;;;;;12.32;77.39;101602.63;5068682;28;19923;-88
2023/01/12 06:05:11;;;;;;;;;;;;;;;12.39;77.13;101603.91;5058564;28;19917;-88
2023/01/12 06:07:37;;;;;;;;;;;;;;;12.32;77.21;101617.44;5078590;28;20427;-88
2023/01/12 06:10:03;;;;;;;;;;;;;;;12.30;77.16;101609.50;5058472;28;19920;-89
2023/01/12 06:15:12;;;;;;;;;;;;;;;12.26;77.48;101622.31;5090392;28;19923;-88
2023/01/12 06:17:38;;;;;;;;;;;;;;;12.29;77.21;101625.13;5068450;28;19921;-88
2023/01/12 06:20:04;;;;;;;;;;;;;;;12.27;77.00;101627.63;5055398;28;20647;-88
2023/01/12 06:22:30;;;;;;;;;;;;;;;12.28;76.94;101618.97;5079345;28;20551;-88
2023/01/12 06:24:55;;;;;;;;;;;;;;;12.17;77.38;101620.00;5084680;28;20420;-88
2023/01/12 06:27:21;;;;;;;;;;;;;;;12.21;77.58;101632.50;5079820;28;19977;-88
2023/01/12 06:29:46;;;;;;;;;;;;;;;12.18;77.51;101630.59;5054314;28;20408;-86
2023/01/12 06:32:19;;;;;;;;;;;;;;;12.05;77.68;101632.38;5069840;28;20305;-90
2023/01/12 06:34:45;;;;;;;;;;;;;;;12.09;77.50;101624.81;5034797;28;19924;-90
2023/01/12 06:37:11;;;;;;;;;;;;;;;12.24;77.25;101637.03;5086038;28;20054;-90
2023/01/12 06:39:37;;;;;;;;;;;;;;;12.24;77.04;101632.69;5075305;28;20020;-88
2023/01/12 06:44:56;;;;;;;;;;;;;;;12.25;77.20;101646.69;5087597;28;19966;-91
2023/01/12 06:47:29;;;;;;;;;;;;;;;12.18;76.54;101642.78;5073401;28;19916;-94
2023/01/12 06:49:56;;;;;;;;;;;;;;;12.21;76.99;101633.41;5072786;28;19923;-92
2023/01/12 06:52:23;;;;;;;;;;;;;;;12.22;77.01;101631.69;5070776;28;19962;-93
2023/01/12 06:55:07;;;;;;;;;;;;;;;12.16;76.59;101629.59;5068746;28;19916;-90
2023/01/12 06:57:41;;;;;;;;;;;;;;;12.24;76.86;101634.41;5050446;28;19913;-92
2023/01/12 07:00:15;;;;;;;;;;;;;;;12.23;77.03;101633.50;5067430;28;19964;-91
2023/01/12 07:02:44;;;;;;;;;;;;;;;12.26;76.59;101643.28;5054337;28;19920;-91
2023/01/12 07:05:14;;;;;;;;;;;;;;;12.27;76.64;101637.22;5071613;28;19921;-92
2023/01/12 07:07:55;;;;;;;;;;;;;;;12.30;76.70;101643.53;5069988;28;19927;-90
2023/01/12 07:10:20;;;;;;;;;;;;;;;12.20;76.73;101633.31;5068317;28;19916;-90
2023/01/12 07:12:50;;;;;;;;;;;;;;;12.25;76.77;101624.00;5066630;28;19916;-93
2023/01/12 07:15:27;;;;;;;;;;;;;;;12.23;76.81;101630.88;5060897;28;19912;-94
2023/01/12 07:17:57;;;;;;;;;;;;;;;12.25;76.74;101634.47;5099331;28;19920;-91
2023/01/12 07:20:34;;;;;;;;;;;;;;;12.19;77.01;101631.50;5069148;28;19963;-95
2023/01/12 07:23:02;;;;;;;;;;;;;;;12.08;76.86;101637.78;5080336;28;20387;-91
2023/01/12 07:25:29;;;;;;;;;;;;;;;12.19;76.82;101635.03;5071771;28;20463;-91
2023/01/12 07:27:55;;;;;;;;;;;;;;;12.17;76.69;101641.91;5065464;28;19931;-93
2023/01/12 07:30:40;;;;;;;;;;;;;;;12.10;76.49;101644.94;5064771;28;19917;-92
2023/01/12 07:33:19;;;;;;;;;;;;;;;12.16;77.14;101654.88;5082560;28;19912;-94
2023/01/12 07:36:16;;;;;;;;;;;;;;;12.02;76.73;101652.31;5071546;28;19923;-95
2023/01/12 07:38:47;;;;;;;;;;;;;;;12.02;77.16;101668.03;5070315;28;19924;-93
2023/01/12 07:43:58;;;;;;;;;;;;;;;11.90;76.61;101682.06;5070047;28;19923;-91
2023/01/12 07:46:31;;;;;;;;;;;;;;;12.09;76.32;101682.41;5071518;28;19963;-91
2023/01/12 07:49:13;;;;;;;;;;;;;;;12.01;76.93;101679.28;5087334;28;20298;-95
2023/01/12 07:51:48;;;;;;;;;;;;;;;12.07;76.82;101673.56;5087007;28;20017;-93
2023/01/12 07:54:18;;;;;;;;;;;;;;;12.10;76.53;101685.91;5067160;28;19917;-94
2023/01/12 07:56:58;;;;;;;;;;;;;;;11.93;76.68;101677.91;5050527;28;20306;-96
2023/01/12 07:59:47;;;;;;;;;;;;;;;12.09;76.56;101687.66;5064545;28;19916;-96
2023/01/12 08:05:30;;;;;;;;;;;;;;;12.08;76.38;101701.53;5073152;28;19963;-96
2023/01/12 08:07:57;;;;;;;;;;;;;;;12.08;76.92;101693.66;5041641;28;19959;-96
2023/01/12 08:10:32;;;;;;;;;;;;;;;12.20;77.06;101698.78;5072437;28;20386;-96
2023/01/12 08:13:12;;;;;;;;;;;;;;;12.11;77.23;101693.88;5090640;28;19912;-96
2023/01/12 08:16:05;;;;;;;;;;;;;;;12.13;77.69;101700.13;5074762;28;19935;-96
2023/01/12 08:18:58;;;;;;;;;;;;;;;12.17;77.31;101694.25;5077018;28;20381;-93
2023/01/12 08:21:25;;;;;;;;;;;;;;;12.11;77.52;101699.13;5058636;28;19920;-95
2023/01/12 08:27:02;;;;;;;;;;;;;;;12.16;77.47;101704.63;5064543;28;20396;-94
2023/01/12 08:29:48;;;;;;;;;;;;;;;12.21;77.40;101701.50;5068099;28;19920;-94
2023/01/12 08:32:29;;;;;;;;;;;;;;;12.27;77.31;101703.56;5055076;28;19916;-95
2023/01/12 08:35:14;;;;;;;;;;;;;;;12.29;77.30;101704.56;5071662;28;19920;-94
2023/01/12 08:38:06;;;;;;;;;;;;;;;12.27;77.95;101702.69;5088558;28;19966;-96
2023/01/12 08:44:01;;;;;;;;;;;;;;;12.29;78.23;101703.69;5044809;28;20460;-95
2023/01/12 08:49:32;;;;;;;;;;;;;;;12.35;78.92;101698.81;5048871;28;19923;-96
2023/01/12 08:52:07;;;;;;;;;;;;;;;12.36;78.95;101701.56;5054727;28;19960;-92
2023/01/12 08:54:46;;;;;;;;;;;;;;;12.32;79.88;101696.94;5042956;28;19897;-93
2023/01/12 08:57:15;;;;;;;;;;;;;;;12.33;80.05;101709.19;5031022;28;19980;-93
2023/01/12 08:59:40;;;;;;;;;;;;;;;12.31;80.79;101708.19;5066222;28;19917;-90
2023/01/12 09:02:08;;;;;;;;;;;;;;;12.31;81.12;101707.31;5050407;28;19951;-94
2023/01/12 09:04:34;;;;;;;;;;;;;;;12.23;81.61;101693.72;5059679;28;20291;-95
2023/01/12 09:07:12;;;;;;;;;;;;;;;12.36;81.23;101701.56;5046998;28;19976;-96
2023/01/12 09:09:38;;;;;;;;;;;;;;;12.33;82.15;101696.09;5046815;28;19913;-96
2023/01/12 09:15:17;;;;;;;;;;;;;;;12.29;82.99;101714.16;5055712;28;20297;-95
2023/01/12 09:17:52;;;;;;;;;;;;;;;12.31;83.45;101712.53;5053799;28;19913;-96
2023/01/12 09:20:37;;;;;;;;;;;;;;;12.42;82.54;101716.72;5013056;28;19923;-95
2023/01/12 09:23:04;;;;;;;;;;;;;;;12.36;82.90;101712.03;5062768;28;19913;-95
2023/01/12 09:25:38;;;;;;;;;;;;;;;12.34;83.72;101711.03;5050422;28;19917;-96
2023/01/12 09:28:16;;;;;;;;;;;;;;;12.32;83.61;101711.72;5035618;28;19940;-96
2023/01/12 09:30:47;;;;;;;;;;;;;;;12.33;84.00;101713.53;5044426;28;19912;-94
2023/01/12 09:33:18;;;;;;;;;;;;;;;12.24;84.08;101708.66;5057324;28;20383;-96
2023/01/12 09:36:07;;;;;;;;;;;;;;;12.24;84.23;101708.66;5037671;28;20341;-96
2023/01/12 09:38:36;;;;;;;;;;;;;;;12.16;84.45;101702.91;5057865;28;19924;-96
2023/01/12 09:47:27;;;;;;;;;;;;;;;12.26;83.34;101701.78;5069466;28;19951;-96
2023/01/12 09:50:18;;;;;;;;;;;;;;;12.28;83.62;101699.28;5068310;28;19944;-96
2023/01/12 09:53:08;;;;;;;;;;;;;;;12.28;83.24;101699.28;5055506;28;19996;-95
2023/01/12 09:59:06;;;;;;;;;;;;;;;12.27;83.23;101694.81;5086877;28;19935;-96
2023/01/12 10:01:35;;;;;;;;;;;;;;;12.26;83.36;101691.31;5061779;28;19928;-94
2023/01/12 10:07:11;;;;;;;;;;;;;;;12.28;83.44;101691.41;5075764;28;19920;-95
2023/01/12 10:09:50;;;;;;;;;;;;;;;12.31;83.26;101697.72;5091332;28;19932;-95
2023/01/12 10:12:33;;;;;;;;;;;;;;;12.32;83.01;101678.59;5073474;28;20302;-95
2023/01/12 10:15:19;;;;;;;;;;;;;;;12.28;83.43;101675.69;5041403;28;19912;-94
2023/01/12 10:17:47;;;;;;;;;;;;;;;12.23;83.79;101672.78;5092549;28;19912;-95
2023/01/12 10:20:34;;;;;;;;;;;;;;;12.22;83.74;101669.25;5087650;28;19917;-95
2023/01/12 10:26:22;;;;;;;;;;;;;;;12.20;83.57;101663.00;5076022;28;19919;-95
2023/01/12 10:29:01;;;;;;;;;;;;;;;12.21;83.42;101661.28;5074002;28;19920;-95
2023/01/12 10:31:28;;;;;;;;;;;;;;;12.15;83.77;101664.47;5081900;28;19995;-94
2023/01/12 10:34:05;;;;;;;;;;;;;;;12.11;83.16;101656.31;5083861;28;19913;-96
2023/01/12 10:36:36;;;;;;;;;;;;;;;12.13;83.70;101663.47;5074695;28;19927;-96
2023/01/12 10:39:04;;;;;;;;;;;;;;;12.14;83.22;101673.09;5054304;28;19971;-94
2023/01/12 10:42:07;;;;;;;;;;;;;;;12.21;82.70;101663.91;5090876;28;19931;-96
2023/01/12 10:44:34;;;;;;;;;;;;;;;12.13;82.94;101657.31;5066297;28;20054;-95
2023/01/12 10:47:07;;;;;;;;;;;;;;;12.16;82.75;101655.78;5045477;28;19916;-95
2023/01/12 10:49:37;;;;;;;;;;;;;;;12.17;82.59;101651.44;5074345;28;19959;-96
2023/01/12 10:55:32;;;;;;;;;;;;;;;12.13;82.27;101646.84;5076967;28;20149;-94
2023/01/12 10:58:20;;;;;;;;;;;;;;;12.14;82.41;101646.94;5081416;28;20550;-95
2023/01/12 11:00:46;;;;;;;;;;;;;;;12.24;81.97;101661.50;5088871;28;20382;-95
2023/01/12 11:03:32;;;;;;;;;;;;;;;12.13;81.97;101652.09;5075852;28;19923;-95
2023/01/12 11:12:08;;;;;;;;;;;;;;;12.27;81.67;101653.81;5071422;28;19925;-94
2023/01/12 11:14:53;;;;;;;;;;;;;;;12.17;82.14;101662.84;5088680;28;20374;-95
2023/01/12 11:20:13;;;;;;;;;;;;;;;12.32;81.44;101670.75;5067987;28;20453;-95
2023/01/12 11:22:39;;;;;;;;;;;;;;;12.31;81.65;101668.91;5078466;28;19917;-94
2023/01/12 11:25:14;;;;;;;;;;;;;;;12.23;81.72;101675.38;5039505;28;19917;-96
2023/01/12 11:27:46;;;;;;;;;;;;;;;12.29;81.53;101669.63;5078357;28;20075;-96
2023/01/12 11:30:30;;;;;;;;;;;;;;;12.26;81.95;101672.09;5040746;28;19913;-94
2023/01/12 11:36:07;;;;;;;;;;;;;;;12.36;81.01;101672.75;5078286;28;19937;-94
2023/01/12 11:38:45;;;;;;;;;;;;;;;12.28;81.67;101671.34;5077456;28;19913;-93
2023/01/12 11:44:30;;;;;;;;;;;;;;;12.30;81.56;101680.22;5072439;28;20018;-96
2023/01/12 11:47:17;;;;;;;;;;;;;;;12.28;81.89;101668.75;5056740;28;19916;-95
2023/01/12 11:49:52;;;;;;;;;;;;;;;12.30;81.44;101680.22;5068322;28;19947;-90
2023/01/12 11:52:32;;;;;;;;;;;;;;;12.30;81.77;101677.59;5048453;28;20365;-94
2023/01/12 11:55:11;;;;;;;;;;;;;;;12.36;81.66;101671.81;5062300;28;19990;-92
2023/01/12 11:57:49;;;;;;;;;;;;;;;12.38;81.57;101665.88;5086462;28;19977;-91
2023/01/12 12:00:29;;;;;;;;;;;;;;;12.42;81.35;101677.41;5092250;28;19931;-94
2023/01/12 12:03:05;;;;;;;;;;;;;;;12.38;81.52;101672.81;5070054;28;20034;-93
2023/01/12 12:11:59;;;;;;;;;;;;;;;12.25;81.08;101676.38;5073135;28;19948;-95
2023/01/12 12:14:45;;;;;;;;;;;;;;;12.29;81.41;101675.78;5086100;28;19939;-93
2023/01/12 12:17:29;;;;;;;;;;;;;;;12.19;80.94;101671.69;5053467;28;19924;-93
2023/01/12 12:20:32;;;;;;;;;;;;;;;12.21;81.44;101675.31;5079611;28;19913;-94
2023/01/12 12:23:06;;;;;;;;;;;;;;;12.15;81.68;101684.47;5064113;28;19923;-93
2023/01/12 12:25:35;;;;;;;;;;;;;;;12.14;81.43;101680.97;5068154;28;19939;-94
2023/01/12 12:28:30;;;;;;;;;;;;;;;12.15;81.42;101682.78;5063358;28;19913;-91
2023/01/12 12:31:31;;;;;;;;;;;;;;;12.10;81.47;101681.56;5071651;28;19916;-94
2023/01/12 12:37:05;;;;;;;;;;;;;;;12.14;81.18;101680.97;5073681;28;19919;-94
2023/01/12 12:39:38;;;;;;;;;;;;;;;12.20;80.69;101689.19;5061719;28;19927;-93
2023/01/12 12:45:21;;;;;;;;;;;;;;;12.16;80.71;101695.06;5069597;28;19974;-94
2023/01/12 12:48:08;;;;;;;;;;;;;;;12.25;80.24;101694.72;5073725;28;19916;-95
2023/01/12 12:53:57;;;;;;;;;;;;;;;12.24;80.46;101695.53;5071237;28;19973;-94
2023/01/12 12:56:28;;;;;;;;;;;;;;;12.20;80.97;101690.94;5097673;28;20300;-93
2023/01/12 12:58:55;;;;;;;;;;;;;;;12.29;80.31;101693.22;5060657;28;19916;-95
2023/01/12 13:01:26;;;;;;;;;;;;;;;12.29;79.87;101696.72;5039592;28;19924;-94
2023/01/12 13:04:00;;;;;;;;;;;;;;;12.33;79.81;101705.69;5075937;28;19916;-94
2023/01/12 13:09:30;;;;;;;;;;;;;;;12.26;79.93;101717.50;5077457;28;19962;-95
2023/01/12 13:11:59;;;;;;;;;;;;;;;12.28;80.20;101712.38;5082611;28;19919;-94
2023/01/12 13:14:36;;;;;;;;;;;;;;;12.29;79.90;101722.91;5092511;28;19912;-94
2023/01/12 13:20:20;;;;;;;;;;;;;;;12.22;79.99;101725.97;5062541;28;19924;-95
2023/01/12 13:22:53;;;;;;;;;;;;;;;12.24;79.95;101716.50;5086439;28;19917;-95
2023/01/12 13:28:37;;;;;;;;;;;;;;;12.29;79.62;101722.00;5074245;28;20535;-93
2023/01/12 13:40:02;;;;;;;;;;;;;;;12.22;79.51;101736.44;5091514;28;19978;-94
2023/01/12 13:45:20;;;;;;;;;;;;;;;12.16;80.08;101742.19;5060917;28;19966;-94
2023/01/12 13:48:12;;;;;;;;;;;;;;;12.16;79.82;101733.44;5039927;28;20396;-94
2023/01/12 13:51:00;;;;;;;;;;;;;;;12.04;79.67;101735.28;5075885;28;19917;-94
2023/01/12 13:53:35;;;;;;;;;;;;;;;12.17;79.51;101732.63;5058957;28;20650;-95
2023/01/12 13:56:02;;;;;;;;;;;;;;;12.13;79.08;101734.16;5061203;28;20317;-96
2023/01/12 13:58:54;;;;;;;;;;;;;;;12.18;79.15;101739.69;5041955;28;19995;-95
2023/01/12 14:01:21;;;;;;;;;;;;;;;12.13;78.98;101742.00;5053954;28;19916;-95
2023/01/12 14:03:57;;;;;;;;;;;;;;;12.21;78.78;101742.47;5032242;28;20375;-90
2023/01/12 14:06:43;;;;;;;;;;;;;;;12.19;79.03;101739.78;5040257;28;19927;-92
2023/01/12 14:18:13;;;;;;;;;;;;;;;12.17;79.19;101741.41;5078518;28;20475;-95
2023/01/12 14:20:51;;;;;;;;;;;;;;;12.19;79.22;101744.09;5041347;28;19928;-96
2023/01/12 14:26:40;;;;;;;;;;;;;;;12.18;79.20;101752.78;5075659;28;20043;-94
2023/01/12 14:29:13;;;;;;;;;;;;;;;12.15;79.50;101760.41;5069295;28;19962;-94
2023/01/12 14:31:42;;;;;;;;;;;;;;;12.14;79.47;101751.66;5040466;28;19955;-94
2023/01/12 14:34:31;;;;;;;;;;;;;;;12.15;79.38;101756.09;5045541;28;19912;-94
2023/01/12 14:36:56;;;;;;;;;;;;;;;12.13;79.52;101757.72;5062863;28;19952;-95
2023/01/12 14:39:24;;;;;;;;;;;;;;;12.15;79.17;101756.09;5040539;28;19920;-95
2023/01/12 14:48:17;;;;;;;;;;;;;;;12.17;79.94;101769.28;5081834;28;19978;-93
2023/01/12 14:51:08;;;;;;;;;;;;;;;12.14;80.41;101756.91;5070737;28;19923;-95
2023/01/12 14:53:50;;;;;;;;;;;;;;;12.12;80.83;101766.38;5076019;28;19926;-93
2023/01/12 14:56:17;;;;;;;;;;;;;;;12.14;81.02;101763.84;5090894;28;19919;-94
2023/01/12 14:59:13;;;;;;;;;;;;;;;12.17;80.88;101769.28;5071744;28;19913;-95
2023/01/12 15:01:41;;;;;;;;;;;;;;;12.17;81.26;101764.97;5091652;28;19920;-94
2023/01/12 15:04:12;;;;;;;;;;;;;;;12.16;81.37;101776.22;5055577;28;19960;-94
2023/01/12 15:09:53;;;;;;;;;;;;;;;12.15;82.18;101773.50;5072025;28;20012;-93
2023/01/12 15:15:26;;;;;;;;;;;;;;;12.12;82.90;101775.94;5070369;28;19974;-95
2023/01/12 15:26:40;;;;;;;;;;;;;;;12.10;83.52;101788.03;5083952;28;19939;-93
2023/01/12 15:29:24;;;;;;;;;;;;;;;12.03;83.64;101791.97;5089276;28;19916;-93
2023/01/12 15:32:11;;;;;;;;;;;;;;;12.07;83.38;101799.22;5074121;28;19962;-93
2023/01/12 15:37:39;;;;;;;;;;;;;;;12.06;83.05;101801.72;5073138;28;19920;-94